Leicester, MA (01524)

5:48 AM EDT on August 01, 2015 (GMT -0400)
Cedar Meadow | | Change Station
CLOSE
Current Station
Personal Weather Station
Location: Leicester, MA
Elevation: 909 ft
Nearby Weather Stations

Elev 909 ft 42.23 °N, 71.94 °W | Updated 3 minutes ago

Clear
Clear
63.7 °F
Feels Like 63.7 °F
N
0.0
Wind Variable Wind from North

Today
High -- | Low -- °F
--% Chance of Precip.
Yesterday
High -- | Low -- °F
Precip. -- in
5:40 AM 8:07 PM
Full, 99% visible
Pressure 29.77 in
Visibility 10.0 miles
Clouds Few 11000 ft
Dew Point 55 °F
Humidity 74%
Rainfall 0.00 in
Snow Depth Not available.
UV 0 out of 12
Pollen 4.70 out of 12
Air Quality Not available.
Flu Activity Not available.
METAR KORH 010854Z AUTO 23011KT 10SM FEW110 19/12 A2978 RMK AO2 SLP080 T01940122 56013

More Conditions Fewer Conditions

Pressure 29.77 in
Visibility 10.0 miles
Clouds Few 11000 ft
Dew Point 55 °F
Humidity 74%
Rainfall 0.00 in
Snow Depth Not available.
UV 0 out of 12
Pollen 4.70 out of 12
Air Quality Not available.
Flu Activity Not available.
METAR KORH 010854Z AUTO 23011KT 10SM FEW110 19/12 A2978 RMK AO2 SLP080 T01940122 56013

More Conditions Fewer Conditions

10-Day Weather Forecast

×

Almanac

Astronomy

Aug. 01, 2015 Rise Set
Actual Time
Civil Twilight
Nautical Twilight
Astronomical Twilight
Moon
Length of Visible Light
Length of Day
Tomorrow will be .
, % of the Moon is Illuminated

Today's Extremes

State Highs State Lows

Community

WunderPhotos

Upload Photos

1,842,905 photos uploaded!

WunderBlogs® & News

Nearby

Air Quality

  Air Quality AQ Index Pollutant
Not available.

Snow Depth

Station Depth Elevation

Earthquake Activity

City Distance Mag. Time & Date
Minimum magnitude displayed is 2.5.

Coastal Water Temperatures

Place Temperature

Stations

Nearby Weather Stations

Station Location Temp. Windchill Dew Point Humidity Wind Precip. Elev Updated Type